Time;durP1;ratioP1;P1;durP2;ratioP2;P2;SDS_P1;SDS_P2;PMS_P1;PMS_P2;Temp;Humidity;BMP_temperature;BMP_pressure;BME280_temperature;BME280_humidity;BME280_pressure;Samples;Min_cycle;Max_cycle;Signal;HPM_P1;HPM_P2
2022/06/24 06:04:22;;;;;;;;;10.00;9.00;;;;;21.36;75.66;100632.44;5131983;27;49574;-71
2022/06/24 06:06:48;;;;;;;;;6.75;6.75;;;;;21.43;74.70;100607.34;5130412;27;49827;-74
2022/06/24 06:09:13;;;;;;;;;7.25;6.00;;;;;21.75;73.77;100634.09;5112435;27;49619;-74
2022/06/24 06:11:39;;;;;;;;;7.50;6.00;;;;;21.66;73.36;100598.69;5110927;27;50301;-77
2022/06/24 06:14:04;;;;;;;;;7.00;7.00;;;;;21.96;72.48;100637.06;5126339;27;49905;-72
2022/06/24 06:16:29;;;;;;;;;7.50;7.50;;;;;22.05;72.41;100633.25;5131355;27;49834;-67
2022/06/24 06:18:55;;;;;;;;;7.50;5.75;;;;;21.98;70.95;100615.63;5111626;27;49768;-68
2022/06/24 06:21:21;;;;;;;;;6.75;6.25;;;;;22.17;71.27;100632.91;5110696;27;51287;-67
2022/06/24 06:23:46;;;;;;;;;9.00;7.25;;;;;22.07;69.70;100606.50;5118397;27;49720;-75
2022/06/24 06:26:12;;;;;;;;;3.75;3.75;;;;;22.25;69.14;100625.56;5121151;27;50489;-81
2022/06/24 06:28:38;;;;;;;;;5.00;5.00;;;;;22.40;69.15;100636.75;5106999;27;49996;-76
2022/06/24 06:31:04;;;;;;;;;5.00;5.00;;;;;22.40;69.03;100623.38;5111239;27;51431;-70
2022/06/24 06:33:33;;;;;;;;;5.75;4.75;;;;;22.38;67.53;100627.84;5110682;27;49898;-77
2022/06/24 06:36:17;;;;;;;;;5.25;5.25;;;;;22.50;67.58;100633.75;5111319;27;49626;-75
2022/06/24 06:38:42;;;;;;;;;5.00;5.00;;;;;22.42;67.36;100613.50;5111626;27;49969;-76
2022/06/24 06:41:08;;;;;;;;;4.25;4.25;;;;;22.71;66.73;100640.22;5110590;27;50330;-75
2022/06/24 06:43:33;;;;;;;;;4.25;4.00;;;;;22.77;66.45;100631.97;5111582;27;49678;-77
2022/06/24 06:45:59;;;;;;;;;5.50;4.50;;;;;22.82;65.47;100622.03;5110835;27;49703;-69
2022/06/24 06:48:25;;;;;;;;;4.75;2.75;;;;;22.97;65.17;100634.09;5109707;27;50071;-75
2022/06/24 06:50:58;;;;;;;;;5.50;5.50;;;;;23.05;65.16;100636.50;5110662;27;49822;-68
2022/06/24 06:53:26;;;;;;;;;3.50;3.00;;;;;23.15;64.61;100619.19;5110631;27;49781;-71
2022/06/24 06:55:51;;;;;;;;;2.50;2.50;;;;;23.38;64.51;100643.44;5110579;27;49747;-74
2022/06/24 06:58:18;;;;;;;;;4.25;4.25;;;;;23.30;64.22;100617.81;5110681;27;49863;-70
2022/06/24 07:00:44;;;;;;;;;7.75;4.00;;;;;23.48;63.53;100649.34;5110690;27;49743;-70
2022/06/24 07:03:09;;;;;;;;;4.00;4.00;;;;;23.21;62.08;100605.63;5110363;27;49580;-71
2022/06/24 07:05:36;;;;;;;;;6.25;6.00;;;;;23.51;63.11;100645.69;5092297;27;49683;-70
2022/06/24 07:08:01;;;;;;;;;5.00;5.00;;;;;23.47;63.27;100631.53;5111041;27;49516;-68
2022/06/24 07:10:27;;;;;;;;;5.25;5.25;;;;;23.65;62.89;100652.34;5109869;27;50407;-75
2022/06/24 07:12:52;;;;;;;;;4.25;4.25;;;;;23.73;62.30;100652.06;5110237;27;49941;-78
2022/06/24 07:15:18;;;;;;;;;4.25;4.25;;;;;23.53;62.22;100633.97;5099214;27;49742;-76
2022/06/24 07:17:43;;;;;;;;;3.50;3.50;;;;;23.68;62.06;100638.84;5096447;27;49710;-68
2022/06/24 07:20:09;;;;;;;;;3.00;3.00;;;;;23.64;62.13;100620.22;5096475;27;49738;-72
2022/06/24 07:22:35;;;;;;;;;4.00;4.00;;;;;23.80;61.99;100626.81;5095996;27;49685;-77
2022/06/24 07:25:00;;;;;;;;;3.00;3.00;;;;;23.97;61.35;100634.25;5096169;27;49709;-77
2022/06/24 07:27:26;;;;;;;;;3.00;3.00;;;;;23.68;61.25;100570.97;5091216;27;49917;-80
2022/06/24 07:29:51;;;;;;;;;6.25;6.25;;;;;23.99;61.47;100605.56;5096010;27;49950;-74
2022/06/24 07:32:16;;;;;;;;;4.00;4.00;;;;;23.87;60.24;100592.63;5086231;27;49791;-78
2022/06/24 07:34:42;;;;;;;;;6.25;5.75;;;;;23.93;60.99;100590.59;5079963;27;49541;-77
2022/06/24 07:37:07;;;;;;;;;1.00;1.00;;;;;23.94;59.61;100591.47;5092452;27;49808;-81
2022/06/24 07:39:33;;;;;;;;;3.00;3.00;;;;;23.90;60.28;100587.13;5096004;27;50948;-67
2022/06/24 07:41:58;;;;;;;;;3.00;3.00;;;;;23.82;60.15;100583.84;5100032;27;49707;-89
2022/06/24 07:44:24;;;;;;;;;4.00;4.00;;;;;23.95;59.70;100598.56;5099122;27;49710;-69
2022/06/24 07:46:50;;;;;;;;;4.25;3.75;;;;;23.93;60.25;100598.63;5099597;27;49860;-78
2022/06/24 07:49:16;;;;;;;;;4.00;4.00;;;;;24.03;60.60;100614.34;5096164;27;50919;-69
2022/06/24 07:51:42;;;;;;;;;3.50;3.50;;;;;24.03;59.98;100611.66;5101379;27;49553;-71
2022/06/24 07:54:08;;;;;;;;;4.00;4.00;;;;;23.81;60.04;100606.22;5099181;27;49846;-84
2022/06/24 07:59:21;;;;;;;;;2.50;2.50;;;;;23.75;60.76;100625.22;5097175;27;50313;-85
2022/06/24 08:01:47;;;;;;;;;3.75;3.75;;;;;23.52;61.48;100585.81;5099687;27;49659;-90
2022/06/24 08:04:12;;;;;;;;;5.00;4.50;;;;;23.80;60.44;100625.94;5101706;27;49737;-72
2022/06/24 08:06:40;;;;;;;;;5.00;4.50;;;;;23.84;61.06;100623.09;5105297;27;49665;-84
2022/06/24 08:09:06;;;;;;;;;4.75;4.75;;;;;23.25;61.12;100509.97;5110316;27;50869;-72
2022/06/24 08:11:32;;;;;;;;;5.75;5.00;;;;;24.02;60.71;100613.47;5110970;27;49731;-76
2022/06/24 08:13:57;;;;;;;;;5.75;5.00;;;;;24.07;59.80;100595.44;5106046;27;49561;-81
2022/06/24 08:16:23;;;;;;;;;5.00;3.25;;;;;24.33;59.45;100617.75;5098909;27;50006;-71
2022/06/24 08:18:50;;;;;;;;;4.00;3.25;;;;;24.47;59.15;100618.94;5095567;27;49894;-80
2022/06/24 08:21:15;;;;;;;;;4.25;4.25;;;;;24.59;59.13;100616.72;5096743;27;49510;-77
2022/06/24 08:23:41;;;;;;;;;5.25;5.25;;;;;24.58;57.55;100609.59;5096194;27;49851;-80
2022/06/24 08:26:06;;;;;;;;;5.25;5.25;;;;;24.20;57.42;100558.28;5094416;27;49987;-77
2022/06/24 08:28:32;;;;;;;;;4.00;4.00;;;;;24.74;57.82;100616.13;5101577;27;50405;-71
2022/06/24 08:30:57;;;;;;;;;5.00;5.00;;;;;24.48;56.29;100547.38;5098639;27;49759;-80
2022/06/24 08:33:23;;;;;;;;;5.00;4.00;;;;;24.99;55.50;100613.31;5104181;27;49677;-76
2022/06/24 08:35:48;;;;;;;;;4.25;4.00;;;;;25.09;54.68;100602.19;5106844;27;49155;-84
2022/06/24 08:38:16;;;;;;;;;3.00;3.00;;;;;25.29;54.39;100600.47;5098512;27;50748;-79
2022/06/24 08:40:46;;;;;;;;;4.25;4.25;;;;;25.41;52.86;100605.31;5099707;27;49664;-83
2022/06/24 08:43:12;;;;;;;;;4.50;4.50;;;;;25.48;52.34;100611.28;5104360;27;49718;-72
2022/06/24 08:45:38;;;;;;;;;2.75;2.75;;;;;25.14;51.63;100553.63;5106499;27;49706;-86
2022/06/24 08:48:09;;;;;;;;;2.25;2.25;;;;;25.54;50.70;100609.19;5103182;27;49834;-77
2022/06/24 08:50:38;;;;;;;;;3.00;2.00;;;;;25.58;50.16;100605.47;5102968;27;49724;-68
2022/06/24 08:53:09;;;;;;;;;3.00;3.00;;;;;25.27;50.03;100532.47;5093213;27;49624;-79
2022/06/24 08:55:36;;;;;;;;;2.75;2.75;;;;;25.63;50.32;100600.72;5126547;27;49766;-74
2022/06/24 08:58:10;;;;;;;;;2.00;2.00;;;;;25.74;50.91;100591.34;5119815;27;50469;-89
2022/06/24 09:00:36;;;;;;;;;2.00;2.00;;;;;25.57;50.06;100547.22;5097701;27;49713;-87
2022/06/24 09:03:05;;;;;;;;;2.50;2.00;;;;;25.76;49.92;100576.88;5096893;27;49612;-81
2022/06/24 09:05:31;;;;;;;;;1.75;1.75;;;;;25.65;50.17;100546.91;5095785;27;49768;-88
2022/06/24 09:08:14;;;;;;;;;4.50;3.00;;;;;25.96;49.58;100570.59;5096005;27;50427;-87
2022/06/24 09:10:42;;;;;;;;;2.00;2.00;;;;;26.08;49.64;100583.50;5105095;27;49671;-89
2022/06/24 09:13:17;;;;;;;;;3.00;3.00;;;;;26.39;49.29;100580.28;5116629;27;49881;-88
2022/06/24 09:15:51;;;;;;;;;3.50;3.50;;;;;26.61;48.17;100569.34;5117667;27;49964;-70
2022/06/24 09:18:21;;;;;;;;;2.00;2.00;;;;;26.63;48.18;100540.53;5105827;27;50340;-89
2022/06/24 09:20:48;;;;;;;;;5.00;4.00;;;;;26.92;48.82;100566.00;5107854;27;49765;-89
2022/06/24 09:23:13;;;;;;;;;3.50;1.00;;;;;26.95;48.26;100563.19;5116664;27;49763;-69
2022/06/24 09:25:50;;;;;;;;;1.25;1.25;;;;;26.88;48.03;100558.19;5078222;27;49830;-92
2022/06/24 09:28:30;;;;;;;;;1.50;1.50;;;;;26.72;46.76;100548.16;5082431;28;51709;-69
2022/06/24 09:31:04;;;;;;;;;2.25;1.50;;;;;26.75;47.00;100555.22;5085696;27;49530;-74
2022/06/24 09:33:36;;;;;;;;;2.75;2.75;;;;;26.58;47.56;100529.13;5113744;27;49772;-81
2022/06/24 09:36:05;;;;;;;;;3.00;3.00;;;;;26.48;47.31;100542.16;5105801;27;49758;-69
2022/06/24 09:38:31;;;;;;;;;2.50;2.50;;;;;26.25;47.57;100513.66;5095157;27;50432;-90
2022/06/24 09:41:06;;;;;;;;;1.50;1.50;;;;;26.38;46.81;100548.06;5096381;27;49612;-69
2022/06/24 09:43:32;;;;;;;;;2.75;2.75;;;;;26.28;46.63;100541.34;5097789;27;49871;-82
2022/06/24 09:45:59;;;;;;;;;2.00;2.00;;;;;26.25;47.06;100520.84;5096836;27;49753;-75
2022/06/24 09:48:28;;;;;;;;;0.50;0.50;;;;;26.15;45.66;100498.91;5095764;27;50667;-68
2022/06/24 09:51:02;;;;;;;;;2.00;2.00;;;;;26.34;46.73;100531.16;5099040;27;49580;-89
2022/06/24 09:53:32;;;;;;;;;2.50;1.25;;;;;26.38;46.64;100521.16;5099287;27;49742;-83
2022/06/24 09:55:58;;;;;;;;;3.00;1.00;;;;;26.45;46.45;100530.69;5098786;27;49793;-81
2022/06/24 09:58:24;;;;;;;;;2.50;2.50;;;;;26.31;45.86;100507.09;5083407;27;51103;-80
2022/06/24 10:00:50;;;;;;;;;4.25;2.50;;;;;26.17;46.28;100462.03;5093655;27;49683;-85
2022/06/24 10:03:16;;;;;;;;;1.00;1.00;;;;;26.55;46.35;100526.59;5094484;27;49783;-77
2022/06/24 10:05:45;;;;;;;;;1.25;1.25;;;;;26.56;45.50;100535.53;5095425;27;49661;-86
2022/06/24 10:08:19;;;;;;;;;1.75;1.75;;;;;26.66;46.39;100529.63;5094559;27;51559;-84
2022/06/24 10:10:51;;;;;;;;;2.25;2.25;;;;;26.55;45.31;100521.22;5094561;27;49760;-73
2022/06/24 10:13:26;;;;;;;;;1.50;1.50;;;;;26.43;45.90;100511.03;5095385;27;49694;-86
2022/06/24 10:15:53;;;;;;;;;1.00;1.00;;;;;26.56;46.25;100530.16;5094192;27;49695;-89
2022/06/24 10:18:20;;;;;;;;;1.00;1.00;;;;;26.51;46.18;100520.47;5094005;27;50505;-86
2022/06/24 10:20:47;;;;;;;;;0.00;0.00;;;;;26.55;44.99;100533.81;5095565;27;49697;-84
2022/06/24 10:23:34;;;;;;;;;2.75;2.75;;;;;26.55;45.49;100533.81;5094924;27;49810;-81
2022/06/24 10:26:09;;;;;;;;;0.75;0.75;;;;;26.36;45.02;100499.66;5094848;27;49796;-91
2022/06/24 10:29:03;;;;;;;;;0.00;0.00;;;;;26.31;44.43;100534.00;5095411;27;51467;-69
2022/06/24 10:31:54;;;;;;;;;1.00;1.00;;;;;26.26;44.96;100533.34;5093642;27;49878;-77
2022/06/24 10:34:21;;;;;;;;;5.50;3.75;;;;;26.10;46.24;100527.81;5109296;27;49779;-79
2022/06/24 10:36:48;;;;;;;;;4.00;1.00;;;;;25.94;46.80;100500.75;5094833;27;49749;-79
2022/06/24 10:39:21;;;;;;;;;2.00;1.50;;;;;25.93;46.75;100509.78;5099324;27;49858;-73
2022/06/24 10:41:58;;;;;;;;;1.00;1.00;;;;;25.71;46.98;100462.44;5113928;27;49718;-74
2022/06/24 10:44:25;;;;;;;;;1.50;1.50;;;;;26.09;47.13;100517.13;5084538;27;49986;-78
2022/06/24 10:47:05;;;;;;;;;1.00;1.00;;;;;26.11;47.03;100508.03;5100750;27;50011;-73
2022/06/24 10:49:52;;;;;;;;;1.00;1.00;;;;;26.10;46.38;100503.59;5086612;27;50115;-84
2022/06/24 10:52:38;;;;;;;;;1.00;1.00;;;;;26.10;46.33;100511.69;5118005;27;49797;-74
2022/06/24 10:55:28;;;;;;;;;1.00;1.00;;;;;26.14;46.14;100510.56;5101231;27;49859;-69
2022/06/24 10:58:06;;;;;;;;;3.00;2.75;;;;;26.20;45.85;100504.91;5097770;27;49734;-73
2022/06/24 11:00:37;;;;;;;;;8.25;8.25;;;;;26.13;45.59;100505.28;5097008;27;49833;-78
2022/06/24 11:03:02;;;;;;;;;23.25;23.00;;;;;25.98;45.65;100504.19;5096842;27;49732;-73
2022/06/24 11:05:32;;;;;;;;;4.00;2.75;;;;;25.80;46.79;100494.28;5095312;27;49717;-84
2022/06/24 11:07:59;;;;;;;;;1.25;1.25;;;;;25.85;46.69;100517.31;5101673;27;49712;-82
2022/06/24 11:10:30;;;;;;;;;2.00;2.00;;;;;25.75;49.72;100525.88;5103114;27;49925;-73
2022/06/24 11:12:58;;;;;;;;;1.50;1.50;;;;;25.72;50.87;100526.03;5096502;27;49727;-69
2022/06/24 11:15:52;;;;;;;;;1.00;1.00;;;;;25.77;51.58;100529.38;5096757;27;49623;-70
2022/06/24 11:18:23;;;;;;;;;2.00;1.00;;;;;25.66;50.38;100506.50;5096846;27;49762;-72
2022/06/24 11:21:17;;;;;;;;;1.50;1.50;;;;;25.78;51.89;100540.06;5093816;27;51352;-72
2022/06/24 11:23:45;;;;;;;;;2.75;2.00;;;;;25.81;54.28;100534.56;5114104;27;49569;-68
2022/06/24 11:26:19;;;;;;;;;1.00;1.00;;;;;25.93;54.42;100533.09;5116544;27;49553;-72
2022/06/24 11:28:55;;;;;;;;;0.00;0.00;;;;;26.08;53.69;100526.16;5103839;27;49996;-69
2022/06/24 11:31:28;;;;;;;;;1.00;1.00;;;;;26.27;52.61;100518.94;5096168;27;50632;-68
2022/06/24 11:34:03;;;;;;;;;1.00;1.00;;;;;26.50;53.15;100518.72;5096431;27;49788;-69
2022/06/24 11:36:31;;;;;;;;;3.00;3.00;;;;;26.49;52.84;100502.66;5095730;27;49906;-74
2022/06/24 11:38:58;;;;;;;;;1.00;1.00;;;;;26.62;51.72;100514.56;5107242;27;50310;-70
2022/06/24 11:41:28;;;;;;;;;2.00;2.00;;;;;26.48;51.25;100496.41;5094220;27;51351;-71
2022/06/24 11:43:54;;;;;;;;;2.50;2.00;;;;;26.24;51.04;100463.44;5116698;27;49629;-77
2022/06/24 11:46:20;;;;;;;;;2.00;1.00;;;;;26.42;50.88;100506.59;5116474;27;50084;-82
2022/06/24 13:28:27;;;;;;;;;1.50;1.50;;;;;25.66;50.03;100502.94;5093499;27;49588;-70
2022/06/24 13:30:52;;;;;;;;;0.50;0.50;;;;;25.71;49.80;100498.28;5090017;27;49837;-68
2022/06/24 13:33:17;;;;;;;;;2.00;0.75;;;;;25.73;49.88;100490.13;5072980;27;49848;-71
2022/06/24 13:35:43;;;;;;;;;1.00;1.00;;;;;25.87;48.94;100490.38;5071431;27;50601;-69
2022/06/24 13:38:08;;;;;;;;;2.00;2.00;;;;;26.05;49.14;100486.78;5070450;28;49739;-69
2022/06/24 13:40:34;;;;;;;;;2.00;2.00;;;;;26.45;49.04;100495.69;5070240;28;49941;-68
2022/06/24 13:42:59;;;;;;;;;2.00;2.00;;;;;26.69;48.66;100491.78;5076926;27;49543;-68
2022/06/24 13:45:25;;;;;;;;;1.50;1.50;;;;;26.91;47.50;100501.44;5090409;27;49919;-68
2022/06/24 13:47:50;;;;;;;;;1.75;1.75;;;;;26.99;46.44;100458.84;5089952;27;49775;-68
2022/06/24 13:50:15;;;;;;;;;3.00;2.00;;;;;27.23;45.65;100483.69;5090808;27;50035;-70
2022/06/24 13:52:41;;;;;;;;;2.75;1.00;;;;;27.54;46.11;100501.78;5073342;27;49825;-68
2022/06/24 13:55:06;;;;;;;;;2.25;2.25;;;;;27.49;45.36;100463.41;5069864;28;50544;-70
2022/06/24 13:57:32;;;;;;;;;3.00;3.00;;;;;27.71;44.64;100487.44;5069946;28;49906;-70
2022/06/24 13:59:59;;;;;;;;;1.00;1.00;;;;;27.84;43.74;100493.88;5069973;28;49872;-69
2022/06/24 14:02:25;;;;;;;;;2.00;2.00;;;;;27.98;42.46;100499.38;5070287;28;49902;-69
2022/06/24 14:04:50;;;;;;;;;2.25;1.25;;;;;27.74;42.32;100450.38;5074131;27;50243;-69
2022/06/24 14:07:15;;;;;;;;;1.75;1.75;;;;;27.93;40.71;100496.06;5069955;28;49653;-70
2022/06/24 14:09:41;;;;;;;;;1.00;1.00;;;;;27.95;40.92;100502.25;5069866;28;49859;-70
2022/06/24 14:12:07;;;;;;;;;0.50;0.50;;;;;28.05;40.44;100483.72;5070018;28;49893;-69
2022/06/24 14:14:33;;;;;;;;;1.50;1.50;;;;;28.28;40.16;100495.91;5069497;27;50461;-68
2022/06/24 14:16:58;;;;;;;;;1.00;1.00;;;;;28.24;39.92;100462.81;5069691;28;49677;-70
2022/06/24 14:19:24;;;;;;;;;1.50;1.50;;;;;28.61;39.09;100498.53;5064323;27;49700;-68
2022/06/24 14:21:49;;;;;;;;;3.00;2.00;;;;;28.87;38.53;100491.63;5049771;28;49587;-69
2022/06/24 14:27:10;;;;;;;;;2.00;2.00;;;;;29.17;38.44;100492.50;5082467;27;49854;-69
2022/06/24 14:29:38;;;;;;;;;1.00;1.00;;;;;28.96;38.85;100470.34;5090129;27;49610;-70
2022/06/24 14:32:04;;;;;;;;;1.50;1.50;;;;;28.75;38.82;100474.28;5072021;27;49966;-69
2022/06/24 14:34:31;;;;;;;;;1.50;1.50;;;;;28.61;39.52;100479.63;5089424;27;51926;-70
2022/06/24 14:36:56;;;;;;;;;2.00;2.00;;;;;28.51;39.94;100490.09;5103271;27;49945;-69
2022/06/24 14:42:05;;;;;;;;;2.50;2.50;;;;;28.17;40.85;100472.22;5073402;28;49748;-73
2022/06/24 14:44:34;;;;;;;;;0.25;0.25;;;;;27.92;40.77;100470.94;5075914;28;50456;-73
2022/06/24 14:47:01;;;;;;;;;2.50;2.50;;;;;27.83;40.87;100465.16;5075936;28;49681;-73
2022/06/24 14:49:27;;;;;;;;;2.00;2.00;;;;;27.56;41.68;100460.28;5057904;28;49692;-75
2022/06/24 14:51:53;;;;;;;;;3.50;3.00;;;;;27.61;41.40;100476.25;5075667;27;49626;-77
2022/06/24 14:54:18;;;;;;;;;2.00;2.00;;;;;27.58;42.10;100477.25;5075823;28;50413;-73
2022/06/24 14:56:44;;;;;;;;;2.75;2.75;;;;;27.58;42.47;100462.91;5075240;27;49626;-73
2022/06/24 14:59:09;;;;;;;;;5.75;4.00;;;;;27.71;42.43;100473.94;5077296;27;49549;-70
2022/06/24 15:01:35;;;;;;;;;2.00;2.00;;;;;27.86;42.09;100476.66;5096409;27;49757;-72
2022/06/24 15:04:01;;;;;;;;;3.00;3.00;;;;;27.93;42.13;100461.00;5095618;27;50178;-73
2022/06/24 15:06:27;;;;;;;;;2.00;2.00;;;;;27.86;41.48;100422.69;5095390;27;49772;-72
2022/06/24 15:08:53;;;;;;;;;5.75;4.25;;;;;28.07;41.85;100463.78;5095078;27;49654;-73
2022/06/24 15:11:19;;;;;;;;;4.00;4.00;;;;;28.04;42.03;100490.94;5093931;27;49760;-72
2022/06/24 16:22:09;;;;;;;;;4.00;4.00;;;;;27.27;54.23;100512.19;5107141;27;51029;-74
2022/06/24 16:28:40;;;;;;;;;6.50;4.50;;;;;27.91;51.09;100474.59;5074622;27;49883;-74
2022/06/24 16:30:05;;;;;;;;;4.00;3.00;;;;;27.66;49.54;100493.94;5080880;27;50125;-74
2022/06/24 16:32:30;;;;;;;;;6.25;6.25;;;;;27.83;49.84;100490.31;5078379;27;49739;-73
2022/06/24 16:34:56;;;;;;;;;4.00;4.00;;;;;27.57;48.16;100450.38;5102433;27;49693;-72
2022/06/24 16:37:21;;;;;;;;;7.00;6.00;;;;;27.57;48.34;100486.28;5088084;27;49886;-72
2022/06/24 16:39:47;;;;;;;;;2.75;2.75;;;;;27.41;48.59;100482.69;5081774;27;50612;-73
2022/06/24 16:42:12;;;;;;;;;4.75;4.75;;;;;27.12;48.92;100472.56;5103390;27;49889;-75
2022/06/24 16:44:37;;;;;;;;;6.25;3.75;;;;;26.87;46.95;100470.25;5087134;27;49798;-70
2022/06/24 16:47:03;;;;;;;;;5.00;4.00;;;;;26.69;46.89;100472.06;5089737;27;49988;-71
2022/06/24 16:49:29;;;;;;;;;4.50;3.00;;;;;26.59;47.79;100473.47;5107160;27;51483;-72
2022/06/24 16:51:54;;;;;;;;;4.75;4.75;;;;;26.48;47.38;100474.88;5090346;27;49765;-71
2022/06/24 16:54:20;;;;;;;;;4.75;4.75;;;;;26.31;47.08;100485.56;5089907;27;49693;-71
2022/06/24 16:56:45;;;;;;;;;4.25;4.25;;;;;25.82;47.15;100434.13;5089016;27;49690;-71
2022/06/24 16:59:11;;;;;;;;;5.00;3.75;;;;;25.36;46.95;100365.47;5089680;27;50739;-70
2022/06/24 17:01:36;;;;;;;;;4.00;4.00;;;;;25.72;46.35;100466.88;5086800;27;49681;-72
2022/06/24 17:04:01;;;;;;;;;3.50;3.50;;;;;25.76;47.01;100472.03;5074056;27;49557;-71
2022/06/24 17:06:28;;;;;;;;;4.75;4.75;;;;;25.77;48.07;100486.34;5090023;27;49552;-70
2022/06/24 17:08:54;;;;;;;;;4.00;4.00;;;;;25.73;48.09;100487.44;5086246;27;50553;-73
2022/06/24 17:11:19;;;;;;;;;5.00;5.00;;;;;25.53;47.92;100464.13;5088055;27;49750;-72
2022/06/24 17:13:45;;;;;;;;;4.00;3.50;;;;;24.54;48.08;100309.19;5088799;27;49715;-72
2022/06/24 17:16:10;;;;;;;;;4.25;4.25;;;;;25.61;48.42;100489.72;5089003;27;49959;-72
2022/06/24 17:18:35;;;;;;;;;1.50;1.25;;;;;24.95;47.79;100404.94;5089950;27;49683;-72
2022/06/24 17:21:01;;;;;;;;;8.00;4.50;;;;;24.88;47.92;100415.06;5104373;27;49817;-70
2022/06/24 17:23:26;;;;;;;;;4.25;4.25;;;;;24.38;46.38;100326.00;5089065;27;49891;-70
2022/06/24 17:25:52;;;;;;;;;3.00;2.00;;;;;25.36;45.75;100489.94;5088778;27;49617;-72
2022/06/24 17:28:17;;;;;;;;;3.50;3.50;;;;;24.76;46.57;100429.88;5079899;27;51401;-74
2022/06/24 17:30:43;;;;;;;;;4.00;3.00;;;;;24.63;45.93;100427.81;5088759;27;49856;-69
2022/06/24 17:33:08;;;;;;;;;3.75;3.25;;;;;25.21;46.31;100524.69;5078321;27;49676;-70
2022/06/24 17:35:34;;;;;;;;;3.25;3.25;;;;;24.74;46.37;100469.34;5076370;28;49703;-69
2022/06/24 17:37:59;;;;;;;;;3.50;3.00;;;;;25.06;46.87;100515.47;5073574;28;49759;-70
2022/06/24 17:40:26;;;;;;;;;4.75;4.75;;;;;25.05;46.45;100525.34;5075574;28;49591;-69
2022/06/24 17:42:51;;;;;;;;;4.50;4.50;;;;;24.60;46.60;100460.13;5075779;28;49889;-69
2022/06/24 17:45:17;;;;;;;;;2.00;2.00;;;;;24.67;46.45;100481.28;5074723;28;49834;-69
2022/06/24 17:47:43;;;;;;;;;6.00;3.00;;;;;24.59;46.53;100467.31;5055220;28;49825;-68
